sensor_id;sensor_type;location;lat;lon;timestamp;temperature;humidity
28654;DHT22;24320;56.980;24.336;2023-08-30T00:01:39;16.50;99.90
28654;DHT22;24320;56.980;24.336;2023-08-30T00:04:06;16.50;99.90
28654;DHT22;24320;56.980;24.336;2023-08-30T00:06:33;16.50;99.90
28654;DHT22;24320;56.980;24.336;2023-08-30T00:09:00;16.40;99.90
28654;DHT22;24320;56.980;24.336;2023-08-30T00:11:27;16.40;99.90
28654;DHT22;24320;56.980;24.336;2023-08-30T00:14:03;16.40;99.90
28654;DHT22;24320;56.980;24.336;2023-08-30T00:16:32;16.40;99.90
28654;DHT22;24320;56.980;24.336;2023-08-30T00:18:59;16.40;99.90
28654;DHT22;24320;56.980;24.336;2023-08-30T00:21:27;16.30;99.90
28654;DHT22;24320;56.980;24.336;2023-08-30T00:23:54;16.30;99.90
28654;DHT22;24320;56.980;24.336;2023-08-30T00:26:20;16.30;99.90
28654;DHT22;24320;56.980;24.336;2023-08-30T00:28:47;16.30;99.90
28654;DHT22;24320;56.980;24.336;2023-08-30T00:31:14;16.30;99.90
28654;DHT22;24320;56.980;24.336;2023-08-30T00:33:41;16.30;99.90
28654;DHT22;24320;56.980;24.336;2023-08-30T00:36:08;16.30;99.90
28654;DHT22;24320;56.980;24.336;2023-08-30T00:38:35;16.30;99.90
28654;DHT22;24320;56.980;24.336;2023-08-30T00:41:02;16.30;99.90
28654;DHT22;24320;56.980;24.336;2023-08-30T00:43:29;16.20;99.90
28654;DHT22;24320;56.980;24.336;2023-08-30T00:45:56;16.30;99.90
28654;DHT22;24320;56.980;24.336;2023-08-30T00:48:23;16.30;99.90
28654;DHT22;24320;56.980;24.336;2023-08-30T00:50:50;16.20;99.90
28654;DHT22;24320;56.980;24.336;2023-08-30T00:53:18;16.20;99.90
28654;DHT22;24320;56.980;24.336;2023-08-30T00:55:45;16.20;99.90
28654;DHT22;24320;56.980;24.336;2023-08-30T00:58:12;16.20;99.90
28654;DHT22;24320;56.980;24.336;2023-08-30T01:00:40;16.10;99.90
28654;DHT22;24320;56.980;24.336;2023-08-30T01:03:07;16.10;99.90
28654;DHT22;24320;56.980;24.336;2023-08-30T01:05:34;16.20;99.90
28654;DHT22;24320;56.980;24.336;2023-08-30T01:08:02;16.20;99.90
28654;DHT22;24320;56.980;24.336;2023-08-30T01:10:41;16.20;99.90
28654;DHT22;24320;56.980;24.336;2023-08-30T01:13:15;16.20;99.90
28654;DHT22;24320;56.980;24.336;2023-08-30T01:15:47;16.20;99.90
28654;DHT22;24320;56.980;24.336;2023-08-30T01:18:18;16.30;99.90
28654;DHT22;24320;56.980;24.336;2023-08-30T01:20:46;16.20;99.90
28654;DHT22;24320;56.980;24.336;2023-08-30T01:26:09;16.10;99.90
28654;DHT22;24320;56.980;24.336;2023-08-30T01:28:38;16.10;99.90
28654;DHT22;24320;56.980;24.336;2023-08-30T01:31:08;16.10;99.90
28654;DHT22;24320;56.980;24.336;2023-08-30T01:33:37;16.10;99.90
28654;DHT22;24320;56.980;24.336;2023-08-30T01:36:05;16.10;99.90
28654;DHT22;24320;56.980;24.336;2023-08-30T01:38:33;16.10;99.90
28654;DHT22;24320;56.980;24.336;2023-08-30T01:41:01;16.10;99.90
28654;DHT22;24320;56.980;24.336;2023-08-30T01:43:29;16.00;99.90
28654;DHT22;24320;56.980;24.336;2023-08-30T01:45:58;16.00;99.90
28654;DHT22;24320;56.980;24.336;2023-08-30T01:48:27;16.10;99.90
28654;DHT22;24320;56.980;24.336;2023-08-30T01:50:54;16.00;99.90
28654;DHT22;24320;56.980;24.336;2023-08-30T01:53:26;16.00;99.90
28654;DHT22;24320;56.980;24.336;2023-08-30T01:55:54;16.00;99.90
28654;DHT22;24320;56.980;24.336;2023-08-30T01:58:21;16.00;99.90
28654;DHT22;24320;56.980;24.336;2023-08-30T02:00:48;15.90;99.90
28654;DHT22;24320;56.980;24.336;2023-08-30T02:03:15;15.90;99.90
28654;DHT22;24320;56.980;24.336;2023-08-30T02:05:50;15.90;99.90
28654;DHT22;24320;56.980;24.336;2023-08-30T02:08:20;15.90;99.90
28654;DHT22;24320;56.980;24.336;2023-08-30T02:10:52;15.90;99.90
28654;DHT22;24320;56.980;24.336;2023-08-30T02:13:25;15.90;99.90
28654;DHT22;24320;56.980;24.336;2023-08-30T02:15:59;15.90;99.90
28654;DHT22;24320;56.980;24.336;2023-08-30T02:18:27;15.90;99.90
28654;DHT22;24320;56.980;24.336;2023-08-30T02:20:55;15.90;99.90
28654;DHT22;24320;56.980;24.336;2023-08-30T02:23:24;15.90;99.90
28654;DHT22;24320;56.980;24.336;2023-08-30T02:25:53;15.90;99.90
28654;DHT22;24320;56.980;24.336;2023-08-30T02:28:20;15.90;99.90
28654;DHT22;24320;56.980;24.336;2023-08-30T02:30:48;16.00;99.90
28654;DHT22;24320;56.980;24.336;2023-08-30T02:33:14;16.00;99.90
28654;DHT22;24320;56.980;24.336;2023-08-30T02:35:41;16.00;99.90
28654;DHT22;24320;56.980;24.336;2023-08-30T02:38:08;16.00;99.90
28654;DHT22;24320;56.980;24.336;2023-08-30T02:40:36;16.00;99.90
28654;DHT22;24320;56.980;24.336;2023-08-30T02:43:03;16.00;99.90
28654;DHT22;24320;56.980;24.336;2023-08-30T02:45:30;16.00;99.90
28654;DHT22;24320;56.980;24.336;2023-08-30T02:47:57;16.00;99.90
28654;DHT22;24320;56.980;24.336;2023-08-30T02:50:24;16.00;99.90
28654;DHT22;24320;56.980;24.336;2023-08-30T02:52:52;15.90;99.90
28654;DHT22;24320;56.980;24.336;2023-08-30T02:55:19;15.90;99.90
28654;DHT22;24320;56.980;24.336;2023-08-30T02:57:46;15.80;99.90
28654;DHT22;24320;56.980;24.336;2023-08-30T03:00:14;15.80;99.90
28654;DHT22;24320;56.980;24.336;2023-08-30T03:02:41;15.80;99.90
28654;DHT22;24320;56.980;24.336;2023-08-30T03:05:08;15.80;99.90
28654;DHT22;24320;56.980;24.336;2023-08-30T03:07:35;15.80;99.90
28654;DHT22;24320;56.980;24.336;2023-08-30T03:10:02;15.90;99.90
28654;DHT22;24320;56.980;24.336;2023-08-30T03:12:30;15.90;99.90
28654;DHT22;24320;56.980;24.336;2023-08-30T03:14:57;16.00;99.90
28654;DHT22;24320;56.980;24.336;2023-08-30T03:17:24;16.00;99.90
28654;DHT22;24320;56.980;24.336;2023-08-30T03:19:52;16.20;99.90
28654;DHT22;24320;56.980;24.336;2023-08-30T03:22:22;16.30;99.90
28654;DHT22;24320;56.980;24.336;2023-08-30T03:24:49;16.30;99.90
28654;DHT22;24320;56.980;24.336;2023-08-30T03:27:16;16.30;99.90
28654;DHT22;24320;56.980;24.336;2023-08-30T03:29:43;16.30;99.90
28654;DHT22;24320;56.980;24.336;2023-08-30T03:32:13;16.20;99.90
28654;DHT22;24320;56.980;24.336;2023-08-30T03:34:40;16.20;99.90
28654;DHT22;24320;56.980;24.336;2023-08-30T03:37:07;16.20;99.90
28654;DHT22;24320;56.980;24.336;2023-08-30T03:39:34;16.20;99.90
28654;DHT22;24320;56.980;24.336;2023-08-30T03:42:01;16.10;99.90
28654;DHT22;24320;56.980;24.336;2023-08-30T03:44:28;16.10;99.90
28654;DHT22;24320;56.980;24.336;2023-08-30T03:46:55;16.10;99.90
28654;DHT22;24320;56.980;24.336;2023-08-30T03:49:23;16.20;99.90
28654;DHT22;24320;56.980;24.336;2023-08-30T03:51:50;16.20;99.90
28654;DHT22;24320;56.980;24.336;2023-08-30T03:54:17;16.20;99.90
28654;DHT22;24320;56.980;24.336;2023-08-30T03:56:45;16.20;99.90
28654;DHT22;24320;56.980;24.336;2023-08-30T03:59:12;16.20;99.90
28654;DHT22;24320;56.980;24.336;2023-08-30T04:01:39;16.20;99.90
28654;DHT22;24320;56.980;24.336;2023-08-30T04:04:06;16.20;99.90
28654;DHT22;24320;56.980;24.336;2023-08-30T04:06:33;16.20;99.90
28654;DHT22;24320;56.980;24.336;2023-08-30T04:09:00;16.20;99.90
28654;DHT22;24320;56.980;24.336;2023-08-30T04:11:27;16.30;99.90
28654;DHT22;24320;56.980;24.336;2023-08-30T04:13:54;16.30;99.90
28654;DHT22;24320;56.980;24.336;2023-08-30T04:16:21;16.30;99.90
28654;DHT22;24320;56.980;24.336;2023-08-30T04:18:48;16.20;99.90
28654;DHT22;24320;56.980;24.336;2023-08-30T04:21:15;16.20;99.90
28654;DHT22;24320;56.980;24.336;2023-08-30T04:23:42;16.20;99.90
28654;DHT22;24320;56.980;24.336;2023-08-30T04:26:09;16.10;99.90
28654;DHT22;24320;56.980;24.336;2023-08-30T04:28:36;16.20;99.90
28654;DHT22;24320;56.980;24.336;2023-08-30T04:31:03;16.10;99.90
28654;DHT22;24320;56.980;24.336;2023-08-30T04:33:30;16.20;99.90
28654;DHT22;24320;56.980;24.336;2023-08-30T04:35:57;16.10;99.90
28654;DHT22;24320;56.980;24.336;2023-08-30T04:38:27;16.10;99.90
28654;DHT22;24320;56.980;24.336;2023-08-30T04:40:58;16.10;99.90
28654;DHT22;24320;56.980;24.336;2023-08-30T04:43:29;16.10;99.90
28654;DHT22;24320;56.980;24.336;2023-08-30T04:45:56;16.00;99.90
28654;DHT22;24320;56.980;24.336;2023-08-30T04:48:23;16.00;99.90
28654;DHT22;24320;56.980;24.336;2023-08-30T04:51:01;16.00;99.90
28654;DHT22;24320;56.980;24.336;2023-08-30T04:53:30;16.00;99.90
28654;DHT22;24320;56.980;24.336;2023-08-30T04:55:57;16.00;99.90
28654;DHT22;24320;56.980;24.336;2023-08-30T04:58:24;16.00;99.90
28654;DHT22;24320;56.980;24.336;2023-08-30T05:00:51;16.00;99.90
28654;DHT22;24320;56.980;24.336;2023-08-30T05:03:18;16.00;99.90
28654;DHT22;24320;56.980;24.336;2023-08-30T05:05:46;16.00;99.90
28654;DHT22;24320;56.980;24.336;2023-08-30T05:08:13;16.00;99.90
28654;DHT22;24320;56.980;24.336;2023-08-30T05:10:40;16.00;99.90
28654;DHT22;24320;56.980;24.336;2023-08-30T05:13:07;16.00;99.90
28654;DHT22;24320;56.980;24.336;2023-08-30T05:15:34;16.00;99.90
28654;DHT22;24320;56.980;24.336;2023-08-30T05:18:01;16.10;99.90
28654;DHT22;24320;56.980;24.336;2023-08-30T05:20:28;16.20;99.90
28654;DHT22;24320;56.980;24.336;2023-08-30T05:22:55;16.10;99.90
28654;DHT22;24320;56.980;24.336;2023-08-30T05:25:22;16.20;99.90
28654;DHT22;24320;56.980;24.336;2023-08-30T05:27:49;16.20;99.90
28654;DHT22;24320;56.980;24.336;2023-08-30T05:30:16;16.20;99.90
28654;DHT22;24320;56.980;24.336;2023-08-30T05:32:43;16.30;99.90
28654;DHT22;24320;56.980;24.336;2023-08-30T05:35:10;16.30;99.90
28654;DHT22;24320;56.980;24.336;2023-08-30T05:37:37;16.30;99.90
28654;DHT22;24320;56.980;24.336;2023-08-30T05:40:05;16.40;99.90
28654;DHT22;24320;56.980;24.336;2023-08-30T05:42:32;16.40;99.90
28654;DHT22;24320;56.980;24.336;2023-08-30T05:44:59;16.50;99.90
28654;DHT22;24320;56.980;24.336;2023-08-30T05:47:26;16.60;99.90
28654;DHT22;24320;56.980;24.336;2023-08-30T05:49:54;16.60;99.90
28654;DHT22;24320;56.980;24.336;2023-08-30T05:52:21;16.70;99.90
28654;DHT22;24320;56.980;24.336;2023-08-30T05:54:48;16.70;99.90
28654;DHT22;24320;56.980;24.336;2023-08-30T05:57:15;16.80;99.90
28654;DHT22;24320;56.980;24.336;2023-08-30T05:59:42;16.80;99.90
28654;DHT22;24320;56.980;24.336;2023-08-30T06:02:10;16.80;99.90
28654;DHT22;24320;56.980;24.336;2023-08-30T06:04:37;16.90;99.90
28654;DHT22;24320;56.980;24.336;2023-08-30T06:07:07;17.00;99.90
28654;DHT22;24320;56.980;24.336;2023-08-30T06:09:34;17.00;99.90
28654;DHT22;24320;56.980;24.336;2023-08-30T06:12:01;17.10;99.90
28654;DHT22;24320;56.980;24.336;2023-08-30T06:14:29;17.10;99.90
28654;DHT22;24320;56.980;24.336;2023-08-30T06:16:56;17.30;99.90
28654;DHT22;24320;56.980;24.336;2023-08-30T06:19:23;17.30;99.90
28654;DHT22;24320;56.980;24.336;2023-08-30T06:21:50;17.40;99.90
28654;DHT22;24320;56.980;24.336;2023-08-30T06:24:17;17.50;99.90
28654;DHT22;24320;56.980;24.336;2023-08-30T06:26:44;17.60;99.90
28654;DHT22;24320;56.980;24.336;2023-08-30T06:29:11;17.70;99.90
28654;DHT22;24320;56.980;24.336;2023-08-30T06:31:37;17.80;99.90
28654;DHT22;24320;56.980;24.336;2023-08-30T06:34:06;17.90;99.90
28654;DHT22;24320;56.980;24.336;2023-08-30T06:36:33;18.10;99.90
28654;DHT22;24320;56.980;24.336;2023-08-30T06:39:00;18.20;99.90
28654;DHT22;24320;56.980;24.336;2023-08-30T06:41:27;18.40;99.90
28654;DHT22;24320;56.980;24.336;2023-08-30T06:43:54;18.50;99.90
28654;DHT22;24320;56.980;24.336;2023-08-30T06:46:21;18.60;99.90
28654;DHT22;24320;56.980;24.336;2023-08-30T06:48:48;18.70;99.90
28654;DHT22;24320;56.980;24.336;2023-08-30T06:51:15;18.80;99.90
28654;DHT22;24320;56.980;24.336;2023-08-30T06:53:42;18.90;99.90
28654;DHT22;24320;56.980;24.336;2023-08-30T06:56:09;18.80;99.90
28654;DHT22;24320;56.980;24.336;2023-08-30T06:58:36;18.90;99.90
28654;DHT22;24320;56.980;24.336;2023-08-30T07:01:03;18.90;99.90
28654;DHT22;24320;56.980;24.336;2023-08-30T07:03:30;18.90;99.90
28654;DHT22;24320;56.980;24.336;2023-08-30T07:05:57;19.00;99.90
28654;DHT22;24320;56.980;24.336;2023-08-30T07:08:24;19.00;99.90
28654;DHT22;24320;56.980;24.336;2023-08-30T07:10:51;18.90;99.90
28654;DHT22;24320;56.980;24.336;2023-08-30T07:15:46;18.90;99.90
28654;DHT22;24320;56.980;24.336;2023-08-30T07:18:13;18.90;99.90
28654;DHT22;24320;56.980;24.336;2023-08-30T07:20:41;18.90;99.90
28654;DHT22;24320;56.980;24.336;2023-08-30T07:23:08;19.00;99.90
28654;DHT22;24320;56.980;24.336;2023-08-30T07:25:38;19.00;99.90
28654;DHT22;24320;56.980;24.336;2023-08-30T07:28:05;19.00;99.90
28654;DHT22;24320;56.980;24.336;2023-08-30T07:30:33;19.10;99.90
28654;DHT22;24320;56.980;24.336;2023-08-30T07:33:02;19.10;99.90
28654;DHT22;24320;56.980;24.336;2023-08-30T07:35:33;19.10;99.90
28654;DHT22;24320;56.980;24.336;2023-08-30T07:38:00;19.20;99.90
28654;DHT22;24320;56.980;24.336;2023-08-30T07:40:27;19.30;99.90
28654;DHT22;24320;56.980;24.336;2023-08-30T07:42:55;19.40;99.90
28654;DHT22;24320;56.980;24.336;2023-08-30T07:45:25;19.50;99.90
28654;DHT22;24320;56.980;24.336;2023-08-30T07:47:53;19.70;99.90
28654;DHT22;24320;56.980;24.336;2023-08-30T07:50:20;19.80;99.90
28654;DHT22;24320;56.980;24.336;2023-08-30T07:52:47;19.90;99.90
28654;DHT22;24320;56.980;24.336;2023-08-30T07:55:14;20.10;99.90
28654;DHT22;24320;56.980;24.336;2023-08-30T07:57:41;20.30;99.90
28654;DHT22;24320;56.980;24.336;2023-08-30T08:00:09;20.40;99.90
28654;DHT22;24320;56.980;24.336;2023-08-30T08:02:36;20.50;99.90
28654;DHT22;24320;56.980;24.336;2023-08-30T08:05:03;20.50;99.90
28654;DHT22;24320;56.980;24.336;2023-08-30T08:07:30;20.60;99.90
28654;DHT22;24320;56.980;24.336;2023-08-30T08:09:57;20.60;99.90
28654;DHT22;24320;56.980;24.336;2023-08-30T08:12:26;20.70;99.90
28654;DHT22;24320;56.980;24.336;2023-08-30T08:14:53;20.70;99.90
28654;DHT22;24320;56.980;24.336;2023-08-30T08:17:20;20.80;99.90
28654;DHT22;24320;56.980;24.336;2023-08-30T08:19:47;20.80;99.90
28654;DHT22;24320;56.980;24.336;2023-08-30T08:22:14;20.80;99.90
28654;DHT22;24320;56.980;24.336;2023-08-30T08:24:41;20.90;99.90
28654;DHT22;24320;56.980;24.336;2023-08-30T08:27:08;21.10;99.90
28654;DHT22;24320;56.980;24.336;2023-08-30T08:29:35;21.30;99.90
28654;DHT22;24320;56.980;24.336;2023-08-30T08:32:02;21.50;99.90
28654;DHT22;24320;56.980;24.336;2023-08-30T08:34:29;21.70;99.90
28654;DHT22;24320;56.980;24.336;2023-08-30T08:36:56;21.90;99.90
28654;DHT22;24320;56.980;24.336;2023-08-30T08:39:23;22.10;99.90
28654;DHT22;24320;56.980;24.336;2023-08-30T08:41:51;22.40;99.90
28654;DHT22;24320;56.980;24.336;2023-08-30T08:44:21;22.60;99.90
28654;DHT22;24320;56.980;24.336;2023-08-30T08:46:50;22.90;99.90
28654;DHT22;24320;56.980;24.336;2023-08-30T08:49:23;23.10;99.90
28654;DHT22;24320;56.980;24.336;2023-08-30T08:51:57;23.30;99.90
28654;DHT22;24320;56.980;24.336;2023-08-30T08:54:24;23.40;99.90
28654;DHT22;24320;56.980;24.336;2023-08-30T08:56:53;23.40;99.90
28654;DHT22;24320;56.980;24.336;2023-08-30T08:59:21;23.40;99.90
28654;DHT22;24320;56.980;24.336;2023-08-30T09:01:49;23.30;99.90
28654;DHT22;24320;56.980;24.336;2023-08-30T09:04:16;23.40;99.90
28654;DHT22;24320;56.980;24.336;2023-08-30T09:06:43;23.50;99.90
28654;DHT22;24320;56.980;24.336;2023-08-30T09:09:12;23.70;99.90
28654;DHT22;24320;56.980;24.336;2023-08-30T09:11:39;23.90;99.90
28654;DHT22;24320;56.980;24.336;2023-08-30T09:14:18;24.20;99.90
28654;DHT22;24320;56.980;24.336;2023-08-30T09:16:59;24.40;99.90
28654;DHT22;24320;56.980;24.336;2023-08-30T09:19:27;24.50;99.90
28654;DHT22;24320;56.980;24.336;2023-08-30T09:21:56;24.40;99.90
28654;DHT22;24320;56.980;24.336;2023-08-30T09:24:24;24.30;99.90
28654;DHT22;24320;56.980;24.336;2023-08-30T09:26:53;24.00;99.90
28654;DHT22;24320;56.980;24.336;2023-08-30T09:29:21;23.70;99.90
28654;DHT22;24320;56.980;24.336;2023-08-30T09:31:51;23.50;99.90
28654;DHT22;24320;56.980;24.336;2023-08-30T09:34:23;23.30;99.90
28654;DHT22;24320;56.980;24.336;2023-08-30T09:36:54;23.20;99.90
28654;DHT22;24320;56.980;24.336;2023-08-30T09:39:22;23.10;99.90
28654;DHT22;24320;56.980;24.336;2023-08-30T09:41:49;23.00;99.90
28654;DHT22;24320;56.980;24.336;2023-08-30T09:44:19;22.90;99.90
28654;DHT22;24320;56.980;24.336;2023-08-30T09:46:50;22.90;99.90
28654;DHT22;24320;56.980;24.336;2023-08-30T09:49:21;23.00;99.90
28654;DHT22;24320;56.980;24.336;2023-08-30T09:51:49;23.10;99.90
28654;DHT22;24320;56.980;24.336;2023-08-30T09:54:24;23.20;99.90
28654;DHT22;24320;56.980;24.336;2023-08-30T09:56:54;23.30;99.90
28654;DHT22;24320;56.980;24.336;2023-08-30T09:59:25;23.30;99.90
28654;DHT22;24320;56.980;24.336;2023-08-30T10:01:52;23.30;99.90
28654;DHT22;24320;56.980;24.336;2023-08-30T10:04:20;23.40;99.90
28654;DHT22;24320;56.980;24.336;2023-08-30T10:06:48;23.50;99.90
28654;DHT22;24320;56.980;24.336;2023-08-30T10:09:16;23.60;99.90
28654;DHT22;24320;56.980;24.336;2023-08-30T10:11:46;23.80;99.90
28654;DHT22;24320;56.980;24.336;2023-08-30T10:14:14;24.10;99.90
28654;DHT22;24320;56.980;24.336;2023-08-30T10:16:45;24.50;99.90
28654;DHT22;24320;56.980;24.336;2023-08-30T10:19:18;24.80;99.90
28654;DHT22;24320;56.980;24.336;2023-08-30T10:24:24;25.30;99.90
28654;DHT22;24320;56.980;24.336;2023-08-30T10:27:04;25.30;99.90
28654;DHT22;24320;56.980;24.336;2023-08-30T10:29:33;25.30;99.90
28654;DHT22;24320;56.980;24.336;2023-08-30T10:32:03;25.50;99.90
28654;DHT22;24320;56.980;24.336;2023-08-30T10:34:34;25.60;99.90
28654;DHT22;24320;56.980;24.336;2023-08-30T10:37:10;25.70;99.90
28654;DHT22;24320;56.980;24.336;2023-08-30T10:39:41;25.90;99.90
28654;DHT22;24320;56.980;24.336;2023-08-30T10:42:10;25.90;99.90
28654;DHT22;24320;56.980;24.336;2023-08-30T10:44:51;25.80;99.90
28654;DHT22;24320;56.980;24.336;2023-08-30T10:47:26;25.50;99.90
28654;DHT22;24320;56.980;24.336;2023-08-30T10:49:56;25.20;99.90
28654;DHT22;24320;56.980;24.336;2023-08-30T10:52:24;25.00;99.90
28654;DHT22;24320;56.980;24.336;2023-08-30T10:54:51;25.00;99.90
28654;DHT22;24320;56.980;24.336;2023-08-30T10:57:23;25.00;99.90
28654;DHT22;24320;56.980;24.336;2023-08-30T11:00:17;25.00;99.90
28654;DHT22;24320;56.980;24.336;2023-08-30T11:02:46;25.10;99.90
28654;DHT22;24320;56.980;24.336;2023-08-30T11:05:23;25.30;99.90
28654;DHT22;24320;56.980;24.336;2023-08-30T11:07:51;25.40;99.90
28654;DHT22;24320;56.980;24.336;2023-08-30T11:10:19;25.50;99.90
28654;DHT22;24320;56.980;24.336;2023-08-30T11:12:47;25.50;99.90
28654;DHT22;24320;56.980;24.336;2023-08-30T11:15:16;25.60;99.90
28654;DHT22;24320;56.980;24.336;2023-08-30T11:17:45;25.60;99.90
28654;DHT22;24320;56.980;24.336;2023-08-30T11:20:14;25.50;99.90
28654;DHT22;24320;56.980;24.336;2023-08-30T11:22:45;25.30;99.90
28654;DHT22;24320;56.980;24.336;2023-08-30T11:25:14;25.20;99.90
28654;DHT22;24320;56.980;24.336;2023-08-30T11:27:42;25.20;99.90
28654;DHT22;24320;56.980;24.336;2023-08-30T11:30:10;25.40;99.90
28654;DHT22;24320;56.980;24.336;2023-08-30T11:32:42;25.50;99.90
28654;DHT22;24320;56.980;24.336;2023-08-30T11:35:12;25.70;99.90
28654;DHT22;24320;56.980;24.336;2023-08-30T11:37:40;25.90;99.90
28654;DHT22;24320;56.980;24.336;2023-08-30T11:40:11;26.00;99.90
28654;DHT22;24320;56.980;24.336;2023-08-30T11:42:39;26.10;99.90
28654;DHT22;24320;56.980;24.336;2023-08-30T11:45:07;26.20;99.90
28654;DHT22;24320;56.980;24.336;2023-08-30T11:47:34;26.20;99.90
28654;DHT22;24320;56.980;24.336;2023-08-30T11:50:01;26.00;99.90
28654;DHT22;24320;56.980;24.336;2023-08-30T11:52:29;26.10;99.90
28654;DHT22;24320;56.980;24.336;2023-08-30T11:54:57;26.10;99.90
28654;DHT22;24320;56.980;24.336;2023-08-30T11:57:24;26.10;99.90
28654;DHT22;24320;56.980;24.336;2023-08-30T11:59:52;26.00;99.90
28654;DHT22;24320;56.980;24.336;2023-08-30T12:02:19;26.00;99.90
28654;DHT22;24320;56.980;24.336;2023-08-30T12:04:50;25.90;99.90
28654;DHT22;24320;56.980;24.336;2023-08-30T12:07:24;25.80;99.90
28654;DHT22;24320;56.980;24.336;2023-08-30T12:10:06;25.60;99.90
28654;DHT22;24320;56.980;24.336;2023-08-30T12:12:35;25.40;99.90
28654;DHT22;24320;56.980;24.336;2023-08-30T12:15:11;25.30;99.90
28654;DHT22;24320;56.980;24.336;2023-08-30T12:17:38;25.20;99.90
28654;DHT22;24320;56.980;24.336;2023-08-30T12:20:06;25.00;99.90
28654;DHT22;24320;56.980;24.336;2023-08-30T12:22:40;25.00;99.90
28654;DHT22;24320;56.980;24.336;2023-08-30T12:25:23;25.20;99.90
28654;DHT22;24320;56.980;24.336;2023-08-30T12:27:50;25.40;99.90
28654;DHT22;24320;56.980;24.336;2023-08-30T12:30:18;25.60;99.90
28654;DHT22;24320;56.980;24.336;2023-08-30T12:32:45;25.70;99.90
28654;DHT22;24320;56.980;24.336;2023-08-30T12:35:13;25.60;99.90
28654;DHT22;24320;56.980;24.336;2023-08-30T12:37:40;25.50;99.90
28654;DHT22;24320;56.980;24.336;2023-08-30T12:40:07;25.50;99.90
28654;DHT22;24320;56.980;24.336;2023-08-30T12:42:35;25.50;99.90
28654;DHT22;24320;56.980;24.336;2023-08-30T12:45:03;25.60;99.90
28654;DHT22;24320;56.980;24.336;2023-08-30T12:47:30;25.70;99.90
28654;DHT22;24320;56.980;24.336;2023-08-30T12:49:57;25.90;99.90
28654;DHT22;24320;56.980;24.336;2023-08-30T12:52:24;26.00;99.90
28654;DHT22;24320;56.980;24.336;2023-08-30T12:54:51;26.00;99.90
28654;DHT22;24320;56.980;24.336;2023-08-30T12:57:20;26.00;99.90
28654;DHT22;24320;56.980;24.336;2023-08-30T12:59:47;26.10;99.90
28654;DHT22;24320;56.980;24.336;2023-08-30T13:02:14;26.10;99.90
28654;DHT22;24320;56.980;24.336;2023-08-30T13:04:41;26.10;99.90
28654;DHT22;24320;56.980;24.336;2023-08-30T13:07:08;26.10;99.90
28654;DHT22;24320;56.980;24.336;2023-08-30T13:09:35;26.00;99.90
28654;DHT22;24320;56.980;24.336;2023-08-30T13:12:03;26.00;99.90
28654;DHT22;24320;56.980;24.336;2023-08-30T13:14:30;25.90;99.90
28654;DHT22;24320;56.980;24.336;2023-08-30T13:16:57;25.70;99.90
28654;DHT22;24320;56.980;24.336;2023-08-30T13:19:27;25.70;99.90
28654;DHT22;24320;56.980;24.336;2023-08-30T13:21:54;25.70;99.90
28654;DHT22;24320;56.980;24.336;2023-08-30T13:24:21;25.70;99.90
28654;DHT22;24320;56.980;24.336;2023-08-30T13:26:48;25.60;99.90
28654;DHT22;24320;56.980;24.336;2023-08-30T13:29:15;25.50;99.90
28654;DHT22;24320;56.980;24.336;2023-08-30T13:31:43;25.30;99.90
28654;DHT22;24320;56.980;24.336;2023-08-30T13:34:10;25.20;99.90
28654;DHT22;24320;56.980;24.336;2023-08-30T13:36:38;25.10;99.90
28654;DHT22;24320;56.980;24.336;2023-08-30T13:39:06;25.10;99.90
28654;DHT22;24320;56.980;24.336;2023-08-30T13:41:33;25.10;99.90
28654;DHT22;24320;56.980;24.336;2023-08-30T13:44:01;25.10;99.90
28654;DHT22;24320;56.980;24.336;2023-08-30T13:46:28;25.00;99.90
28654;DHT22;24320;56.980;24.336;2023-08-30T13:48:56;25.00;99.90
28654;DHT22;24320;56.980;24.336;2023-08-30T13:51:24;25.10;99.90
28654;DHT22;24320;56.980;24.336;2023-08-30T13:53:51;25.10;99.90
28654;DHT22;24320;56.980;24.336;2023-08-30T13:56:19;25.20;99.90
28654;DHT22;24320;56.980;24.336;2023-08-30T13:58:46;25.10;99.90
28654;DHT22;24320;56.980;24.336;2023-08-30T14:01:13;25.10;99.90
28654;DHT22;24320;56.980;24.336;2023-08-30T14:03:40;25.00;99.90
28654;DHT22;24320;56.980;24.336;2023-08-30T14:06:08;25.00;99.90
28654;DHT22;24320;56.980;24.336;2023-08-30T14:08:35;24.90;99.90
28654;DHT22;24320;56.980;24.336;2023-08-30T14:11:02;24.90;99.90
28654;DHT22;24320;56.980;24.336;2023-08-30T14:13:30;24.80;99.90
28654;DHT22;24320;56.980;24.336;2023-08-30T14:16:03;24.80;99.90
28654;DHT22;24320;56.980;24.336;2023-08-30T14:18:31;24.90;99.90
28654;DHT22;24320;56.980;24.336;2023-08-30T14:20:59;24.90;99.90
28654;DHT22;24320;56.980;24.336;2023-08-30T14:23:27;25.00;99.90
28654;DHT22;24320;56.980;24.336;2023-08-30T14:26:03;25.00;99.90
28654;DHT22;24320;56.980;24.336;2023-08-30T14:28:37;25.00;99.90
28654;DHT22;24320;56.980;24.336;2023-08-30T14:31:07;25.10;99.90
28654;DHT22;24320;56.980;24.336;2023-08-30T14:33:35;25.10;99.90
28654;DHT22;24320;56.980;24.336;2023-08-30T14:36:02;25.10;99.90
28654;DHT22;24320;56.980;24.336;2023-08-30T14:38:29;25.10;99.90
28654;DHT22;24320;56.980;24.336;2023-08-30T14:41:00;25.20;99.90
28654;DHT22;24320;56.980;24.336;2023-08-30T14:46:07;25.10;99.90
28654;DHT22;24320;56.980;24.336;2023-08-30T14:48:41;25.10;99.90
28654;DHT22;24320;56.980;24.336;2023-08-30T14:51:08;25.00;99.90
28654;DHT22;24320;56.980;24.336;2023-08-30T14:53:35;24.90;99.90
28654;DHT22;24320;56.980;24.336;2023-08-30T14:56:04;24.80;99.90
28654;DHT22;24320;56.980;24.336;2023-08-30T14:58:35;24.80;99.90
28654;DHT22;24320;56.980;24.336;2023-08-30T15:01:03;24.90;99.90
28654;DHT22;24320;56.980;24.336;2023-08-30T15:03:30;24.90;99.90
28654;DHT22;24320;56.980;24.336;2023-08-30T15:05:57;24.90;99.90
28654;DHT22;24320;56.980;24.336;2023-08-30T15:08:25;24.90;99.90
28654;DHT22;24320;56.980;24.336;2023-08-30T15:10:52;24.80;99.90
28654;DHT22;24320;56.980;24.336;2023-08-30T15:13:20;24.70;99.90
28654;DHT22;24320;56.980;24.336;2023-08-30T15:15:47;24.70;99.90
28654;DHT22;24320;56.980;24.336;2023-08-30T15:18:14;24.70;99.90
28654;DHT22;24320;56.980;24.336;2023-08-30T15:20:42;24.70;99.90
28654;DHT22;24320;56.980;24.336;2023-08-30T15:23:12;24.60;99.90
28654;DHT22;24320;56.980;24.336;2023-08-30T15:25:45;24.50;99.90
28654;DHT22;24320;56.980;24.336;2023-08-30T15:28:14;24.50;99.90
28654;DHT22;24320;56.980;24.336;2023-08-30T15:30:42;24.40;99.90
28654;DHT22;24320;56.980;24.336;2023-08-30T15:33:09;24.30;99.90